createdAt,value
2023-02-23T00:02:04.777Z,31.33
2023-02-23T00:07:06.763Z,21.67
2023-02-23T00:12:10.915Z,17.00
2023-02-23T00:17:14.652Z,15.57
2023-02-23T00:22:17.086Z,15.00
2023-02-23T00:27:20.614Z,14.85
2023-02-23T00:32:24.582Z,15.07
2023-02-23T00:37:26.768Z,14.65
2023-02-23T00:42:32.553Z,14.02
2023-02-23T00:47:35.926Z,14.60
2023-02-23T00:52:37.889Z,12.93
2023-02-23T00:57:40.565Z,14.32
2023-02-23T01:02:42.515Z,14.20
2023-02-23T01:07:47.315Z,13.43
2023-02-23T01:12:51.336Z,14.45
2023-02-23T01:17:53.408Z,13.65
2023-02-23T01:22:55.201Z,14.27
2023-02-23T01:27:56.950Z,14.82
2023-02-23T01:32:59.188Z,14.27
2023-02-23T01:38:01.719Z,13.50
2023-02-23T01:43:11.819Z,14.07
2023-02-23T01:48:24.305Z,13.50
2023-02-23T01:53:29.339Z,13.50
2023-02-23T01:58:33.148Z,13.55
2023-02-23T02:03:40.187Z,14.70
2023-02-23T02:08:47.044Z,13.77
2023-02-23T02:13:49.160Z,14.70
2023-02-23T02:19:37.846Z,14.07
2023-02-23T02:24:52.541Z,15.23
2023-02-23T02:30:00.530Z,13.75
2023-02-23T02:35:20.632Z,14.80
2023-02-23T02:40:37.242Z,13.85
2023-02-23T02:45:48.448Z,14.68
2023-02-23T02:51:12.178Z,13.35
2023-02-23T02:56:19.904Z,14.57
2023-02-23T03:01:40.881Z,13.57
2023-02-23T03:07:24.396Z,13.77
2023-02-23T03:13:15.846Z,14.07
2023-02-23T03:18:53.744Z,12.85
2023-02-23T03:24:24.157Z,13.57
2023-02-23T03:30:02.982Z,13.25
2023-02-23T03:35:35.601Z,12.70
2023-02-23T03:40:59.036Z,12.80
2023-02-23T03:46:21.483Z,13.60
2023-02-23T03:51:45.247Z,12.55
2023-02-23T03:57:10.709Z,14.25
2023-02-23T04:02:34.267Z,13.13
2023-02-23T04:07:58.325Z,12.40
2023-02-23T04:13:18.323Z,12.57
2023-02-23T04:18:32.897Z,14.75
2023-02-23T04:23:36.150Z,23.85
2023-02-23T04:28:38.221Z,12.65
2023-02-23T04:33:40.052Z,12.95
2023-02-23T04:38:46.820Z,11.68
2023-02-23T04:43:49.465Z,12.40
2023-02-23T04:48:51.342Z,16.75
2023-02-23T04:53:53.455Z,12.50
2023-02-23T04:58:55.231Z,11.70
2023-02-23T05:03:57.105Z,12.15
2023-02-23T05:08:58.905Z,12.23
2023-02-23T05:14:01.700Z,12.98
2023-02-23T05:19:03.542Z,12.30
2023-02-23T05:24:05.937Z,12.68
2023-02-23T05:29:07.739Z,11.07
2023-02-23T05:34:10.240Z,11.88
2023-02-23T05:39:12.133Z,11.88
2023-02-23T05:44:14.017Z,12.15
2023-02-23T05:49:15.922Z,14.32
2023-02-23T05:54:18.092Z,12.85
2023-02-23T05:59:19.937Z,12.65
2023-02-23T06:04:23.379Z,13.10
2023-02-23T06:09:25.509Z,13.15
2023-02-23T06:14:29.145Z,13.30
2023-02-23T06:19:31.949Z,14.93
2023-02-23T06:24:35.418Z,12.93
2023-02-23T06:29:38.226Z,13.30
2023-02-23T06:34:40.496Z,13.15
2023-02-23T06:39:42.688Z,12.80
2023-02-23T06:44:44.454Z,12.13
2023-02-23T06:49:48.202Z,12.57
2023-02-23T06:54:50.569Z,12.70
2023-02-23T06:59:53.402Z,13.15
2023-02-23T07:04:55.273Z,12.70
2023-02-23T07:09:58.731Z,12.55
2023-02-23T07:15:00.597Z,12.85
2023-02-23T07:20:03.105Z,13.70
2023-02-23T07:25:06.820Z,12.82
2023-02-23T07:30:10.286Z,12.15
2023-02-23T07:35:13.705Z,13.57
2023-02-23T07:40:17.555Z,12.32
2023-02-23T07:45:19.617Z,13.68
2023-02-23T07:50:21.638Z,12.38
2023-02-23T07:55:23.732Z,12.10
2023-02-23T08:00:27.198Z,19.70
2023-02-23T08:05:29.155Z,12.50
2023-02-23T08:10:31.199Z,14.85
2023-02-23T08:15:33.000Z,13.25
2023-02-23T08:20:35.416Z,13.10
2023-02-23T08:25:37.460Z,13.30
2023-02-23T08:30:41.706Z,12.88
2023-02-23T08:35:44.457Z,13.10
2023-02-23T08:40:47.555Z,13.45
2023-02-23T08:45:49.382Z,12.88
2023-02-23T08:50:55.540Z,13.80
2023-02-23T08:56:03.291Z,13.30
2023-02-23T09:01:06.048Z,13.75
2023-02-23T09:06:12.711Z,14.00
2023-02-23T09:11:14.481Z,14.73
2023-02-23T09:16:17.052Z,14.75
2023-02-23T09:21:22.458Z,15.43
2023-02-23T09:26:26.305Z,15.77
2023-02-23T09:31:28.895Z,16.38
2023-02-23T09:36:31.640Z,16.02
2023-02-23T09:41:56.858Z,16.27
2023-02-23T09:47:11.889Z,16.33
2023-02-23T09:52:24.051Z,16.42
2023-02-23T09:57:40.027Z,16.80
2023-02-23T10:03:11.077Z,17.83
2023-02-23T10:08:41.930Z,17.05
2023-02-23T10:13:46.760Z,18.92
2023-02-23T10:19:32.486Z,22.42
2023-02-23T10:24:39.707Z,18.10
2023-02-23T10:29:48.345Z,18.45
2023-02-23T10:34:54.089Z,19.63
2023-02-23T10:39:55.994Z,18.92
2023-02-23T10:44:59.088Z,18.80
2023-02-23T10:50:02.242Z,19.48
2023-02-23T10:55:09.965Z,18.67
2023-02-23T11:00:20.354Z,19.00
2023-02-23T11:05:36.421Z,19.13
2023-02-23T11:10:38.482Z,20.92
2023-02-23T11:15:50.694Z,20.38
2023-02-23T11:20:53.456Z,22.80
2023-02-23T11:26:03.880Z,22.33
2023-02-23T11:31:22.690Z,22.05
2023-02-23T11:36:32.752Z,22.65
2023-02-23T11:41:37.247Z,22.83
2023-02-23T11:46:39.808Z,22.65
2023-02-23T11:51:49.166Z,23.20
2023-02-23T11:56:52.273Z,21.35
2023-02-23T12:01:59.619Z,22.17
2023-02-23T12:07:29.694Z,22.88
2023-02-23T12:12:36.429Z,24.02
2023-02-23T12:17:49.081Z,24.88
2023-02-23T12:23:05.913Z,23.98
2023-02-23T12:28:38.098Z,24.15
2023-02-23T12:33:46.663Z,23.23
2023-02-23T12:38:56.276Z,23.25
2023-02-23T12:44:15.455Z,24.48
2023-02-23T12:49:28.355Z,25.10
2023-02-23T12:54:33.358Z,25.60
2023-02-23T12:59:53.532Z,25.48
2023-02-23T13:05:17.109Z,25.08
2023-02-23T13:10:24.926Z,27.52
2023-02-23T13:15:44.803Z,25.77
2023-02-23T13:21:10.214Z,26.45
2023-02-23T13:26:29.429Z,25.65
2023-02-23T13:31:44.154Z,26.48
2023-02-23T13:36:46.462Z,27.90
2023-02-23T13:42:00.283Z,26.50
2023-02-23T13:47:16.407Z,26.60
2023-02-23T13:52:38.154Z,28.52
2023-02-23T13:57:44.788Z,26.17
2023-02-23T14:02:49.312Z,27.73
2023-02-23T14:08:03.072Z,27.42
2023-02-23T14:13:14.436Z,28.23
2023-02-23T14:18:21.851Z,28.42
2023-02-23T14:23:26.095Z,26.73
2023-02-23T14:28:31.542Z,27.30
2023-02-23T14:33:43.734Z,29.77
2023-02-23T14:38:48.195Z,30.10
2023-02-23T14:43:59.400Z,29.98
2023-02-23T14:54:33.538Z,29.88
2023-02-23T14:59:45.068Z,30.55
2023-02-23T15:04:48.450Z,29.80
2023-02-23T15:09:53.915Z,33.40
2023-02-23T15:15:01.442Z,30.05
2023-02-23T15:20:16.187Z,30.85
2023-02-23T15:25:28.366Z,29.35
2023-02-23T15:30:35.718Z,29.38
2023-02-23T15:35:57.887Z,30.90
2023-02-23T15:41:08.808Z,31.30
2023-02-23T15:46:24.109Z,28.65
2023-02-23T15:51:58.330Z,30.67
2023-02-23T15:57:07.895Z,32.10
2023-02-23T16:02:19.560Z,31.95
2023-02-23T16:07:28.083Z,33.38
2023-02-23T16:12:40.519Z,32.40
2023-02-23T16:17:48.561Z,32.92
2023-02-23T16:22:55.141Z,32.58
2023-02-23T16:28:09.221Z,32.45
2023-02-23T16:33:30.073Z,32.85
2023-02-23T16:38:42.867Z,33.95
2023-02-23T16:43:46.819Z,34.67
2023-02-23T16:48:48.984Z,34.38
2023-02-23T16:53:54.870Z,36.05
2023-02-23T16:59:02.881Z,36.20
2023-02-23T17:04:06.376Z,36.53
2023-02-23T17:09:13.564Z,36.78
2023-02-23T17:14:29.228Z,37.45
2023-02-23T17:19:32.481Z,37.08
2023-02-23T17:24:34.669Z,35.92
2023-02-23T17:29:37.012Z,38.58
2023-02-23T17:34:40.508Z,54.20
2023-02-23T17:39:42.533Z,40.35
2023-02-23T17:44:45.690Z,38.97
2023-02-23T17:49:49.129Z,37.40
2023-02-23T17:54:57.946Z,38.67
2023-02-23T18:00:00.748Z,39.80
2023-02-23T18:05:10.531Z,40.05
2023-02-23T18:10:14.520Z,41.58
2023-02-23T18:15:18.849Z,40.78
2023-02-23T18:20:25.777Z,40.88
2023-02-23T18:25:29.652Z,40.08
2023-02-23T18:30:31.626Z,38.53
2023-02-23T18:35:37.825Z,39.13
2023-02-23T18:40:40.894Z,43.17
2023-02-23T18:45:43.840Z,42.13
2023-02-23T18:50:46.766Z,30.98
2023-02-23T18:55:50.929Z,28.83
2023-02-23T19:00:54.982Z,27.23
2023-02-23T19:05:58.946Z,25.13
2023-02-23T19:11:00.684Z,23.30
2023-02-23T19:16:08.492Z,24.13
2023-02-23T19:21:10.265Z,26.10
2023-02-23T19:26:26.212Z,25.00
2023-02-23T19:31:32.763Z,25.23
2023-02-23T19:36:38.200Z,26.83
2023-02-23T19:41:42.431Z,25.45
2023-02-23T19:46:46.831Z,25.17
2023-02-23T19:51:53.208Z,27.05
2023-02-23T19:56:56.810Z,26.33
2023-02-23T20:02:05.731Z,27.60
2023-02-23T20:07:17.221Z,25.95
2023-02-23T20:17:36.116Z,25.35
2023-02-23T20:22:41.342Z,24.13
2023-02-23T20:27:46.501Z,21.80
2023-02-23T20:32:49.152Z,19.08
2023-02-23T20:37:54.134Z,18.05
2023-02-23T20:42:57.172Z,18.33
2023-02-23T20:48:01.419Z,20.52
2023-02-23T20:53:05.815Z,20.92
2023-02-23T20:58:08.023Z,21.65
2023-02-23T21:03:11.949Z,21.70
2023-02-23T21:08:19.093Z,21.10
2023-02-23T21:13:23.312Z,23.42
2023-02-23T21:18:26.495Z,23.48
2023-02-23T21:23:28.994Z,24.33
2023-02-23T21:28:32.193Z,21.92
2023-02-23T21:33:36.023Z,22.95
2023-02-23T21:38:39.555Z,24.83
2023-02-23T21:43:43.831Z,23.27
2023-02-23T21:48:46.312Z,21.77
2023-02-23T21:53:50.347Z,22.05
2023-02-23T21:58:55.393Z,20.73
2023-02-23T22:03:58.472Z,20.70
2023-02-23T22:09:01.219Z,21.67
2023-02-23T22:14:06.653Z,21.55
2023-02-23T22:19:09.045Z,22.15
2023-02-23T22:24:15.863Z,18.90
2023-02-23T22:29:23.430Z,18.73
2023-02-23T22:34:25.724Z,17.75
2023-02-23T22:39:33.869Z,17.10
2023-02-23T22:44:39.566Z,19.30
2023-02-23T22:55:01.026Z,17.40
2023-02-23T23:00:07.492Z,17.83
2023-02-23T23:05:09.748Z,19.27
2023-02-23T23:10:18.459Z,17.73
2023-02-23T23:15:20.244Z,17.92
2023-02-23T23:20:25.689Z,17.55
2023-02-23T23:25:31.983Z,17.27
2023-02-23T23:30:35.993Z,17.30
2023-02-23T23:35:49.037Z,16.05
2023-02-23T23:40:53.699Z,16.70
2023-02-23T23:45:56.942Z,15.70
2023-02-23T23:51:05.346Z,15.85
